Time;durP1;ratioP1;P1;durP2;ratioP2;P2;SDS_P1;SDS_P2;PMS_P1;PMS_P2;Temp;Humidity;BMP_temperature;BMP_pressure;BME280_temperature;BME280_humidity;BME280_pressure;Samples;Min_cycle;Max_cycle;Signal;HPM_P1;HPM_P2
2021/12/25 00:01:09;;;;;;;;;47.75;39.25;;;;;10.30;95.26;99506.22;5056922;28;45440;-67
2021/12/25 00:03:36;;;;;;;;;48.50;39.50;;;;;10.29;95.56;99507.16;5057149;28;46311;-69
2021/12/25 00:06:01;;;;;;;;;49.50;41.25;;;;;10.27;95.45;99497.69;5041131;28;45277;-68
2021/12/25 00:08:29;;;;;;;;;52.00;41.75;;;;;10.22;95.51;99500.56;5058065;28;45268;-68
2021/12/25 00:10:57;;;;;;;;;44.75;35.75;;;;;10.21;95.04;99499.72;5056474;28;45505;-71
2021/12/25 00:13:22;;;;;;;;;45.00;37.25;;;;;10.17;95.64;99497.34;5055615;28;45380;-71
2021/12/25 00:15:49;;;;;;;;;47.50;36.75;;;;;10.16;95.33;99500.91;5055304;28;45401;-71
2021/12/25 00:18:16;;;;;;;;;43.50;36.75;;;;;10.13;95.24;99495.81;5055329;28;45411;-71
2021/12/25 00:20:42;;;;;;;;;46.75;37.75;;;;;10.12;95.80;99492.34;5055567;28;45511;-69
2021/12/25 00:23:08;;;;;;;;;40.25;35.25;;;;;10.13;95.47;99491.44;5055681;28;46411;-68
2021/12/25 00:25:38;;;;;;;;;47.00;38.75;;;;;10.12;95.76;99489.72;5055468;28;45443;-71
2021/12/25 00:30:43;;;;;;;;;43.25;35.50;;;;;10.12;95.96;99481.84;5056076;28;45367;-72
2021/12/25 00:35:52;;;;;;;;;43.00;35.75;;;;;10.16;95.55;99472.84;5054920;28;45394;-71
2021/12/25 00:38:18;;;;;;;;;45.00;35.25;;;;;10.16;96.17;99462.34;5055073;28;45288;-71
2021/12/25 00:40:43;;;;;;;;;43.75;33.75;;;;;10.19;96.29;99462.16;5054911;28;45227;-70
2021/12/25 00:43:09;;;;;;;;;44.00;33.00;;;;;10.21;95.64;99462.06;5054733;28;45379;-67
2021/12/25 00:45:34;;;;;;;;;41.25;32.50;;;;;10.20;95.16;99447.22;5055949;28;45413;-68
2021/12/25 00:48:00;;;;;;;;;46.00;35.00;;;;;10.20;95.62;99447.22;5063169;28;45388;-73
2021/12/25 00:50:25;;;;;;;;;43.25;34.00;;;;;10.20;95.66;99441.97;5069148;28;45267;-72
2021/12/25 00:52:50;;;;;;;;;40.25;33.00;;;;;10.18;95.36;99436.81;5059401;28;45323;-72
2021/12/25 00:55:16;;;;;;;;;38.00;31.50;;;;;10.16;94.85;99436.06;5058311;28;45557;-71
2021/12/25 00:57:41;;;;;;;;;31.00;29.00;;;;;10.15;94.79;99452.78;5058732;28;45363;-73
2021/12/25 01:00:10;;;;;;;;;35.50;31.25;;;;;10.14;94.88;99447.59;5059329;28;45334;-70
2021/12/25 01:02:38;;;;;;;;;38.25;32.75;;;;;10.09;94.69;99448.69;5058441;28;46227;-72
2021/12/25 01:05:04;;;;;;;;;39.00;31.50;;;;;10.09;94.71;99458.38;5058235;28;45347;-71
2021/12/25 01:07:30;;;;;;;;;34.50;30.50;;;;;10.06;94.83;99454.13;5058144;28;45424;-74
2021/12/25 01:09:55;;;;;;;;;41.25;34.00;;;;;10.05;94.73;99457.69;5058200;28;45270;-74
2021/12/25 01:12:20;;;;;;;;;44.00;34.75;;;;;10.03;95.33;99453.44;5039407;28;45336;-71
2021/12/25 01:14:52;;;;;;;;;46.50;36.25;;;;;10.03;95.11;99462.19;5058830;28;45298;-72
2021/12/25 01:17:59;;;;;;;;;49.25;38.50;;;;;10.01;95.16;99469.28;5060240;28;45335;-73
2021/12/25 01:20:32;;;;;;;;;44.50;36.00;;;;;9.99;95.05;99470.31;5058955;28;45441;-74
2021/12/25 01:31:14;;;;;;;;;42.00;34.75;;;;;9.77;95.12;99466.25;5059312;28;45229;-70
2021/12/25 01:49:35;;;;;;;;;37.75;32.25;;;;;9.32;96.32;99472.09;5058491;28;45300;-68
2021/12/25 01:52:02;;;;;;;;;34.75;32.00;;;;;9.31;96.75;99478.28;5058358;28;45613;-71
2021/12/25 01:54:27;;;;;;;;;33.25;28.75;;;;;9.33;96.75;99473.81;5058140;28;47322;-71
2021/12/25 01:56:53;;;;;;;;;35.00;30.50;;;;;9.33;97.01;99475.56;5057947;28;45382;-71
2021/12/25 01:59:18;;;;;;;;;37.00;32.50;;;;;9.38;97.06;99476.16;5062908;28;45363;-70
2021/12/25 02:01:44;;;;;;;;;38.50;30.00;;;;;9.47;97.19;99483.56;5062136;28;45626;-70
2021/12/25 02:04:10;;;;;;;;;37.00;31.50;;;;;9.52;97.13;99487.72;5060574;28;45351;-72
2021/12/25 02:06:35;;;;;;;;;35.75;31.25;;;;;9.56;97.06;99484.84;5058109;28;45387;-68
2021/12/25 02:09:01;;;;;;;;;33.00;30.25;;;;;9.62;96.54;99487.16;5057938;28;45409;-74
2021/12/25 02:11:26;;;;;;;;;48.50;37.50;;;;;9.63;96.44;99482.75;5057554;28;45630;-70
2021/12/25 02:13:52;;;;;;;;;42.25;31.75;;;;;9.61;96.35;99485.44;5057054;28;46138;-72
2021/12/25 02:16:21;;;;;;;;;32.50;29.00;;;;;9.60;96.35;99475.06;5057138;28;45331;-70
2021/12/25 02:19:13;;;;;;;;;29.75;26.00;;;;;9.54;95.89;99476.22;5057356;28;45321;-73
2021/12/25 02:21:40;;;;;;;;;33.00;29.50;;;;;9.52;96.02;99479.84;5057568;28;46108;-69
2021/12/25 02:24:09;;;;;;;;;29.75;27.00;;;;;9.50;96.27;99486.00;5056852;28;46977;-71
2021/12/25 02:26:36;;;;;;;;;32.75;28.50;;;;;9.47;96.35;99483.56;5056830;28;45371;-70
2021/12/25 02:29:02;;;;;;;;;32.00;25.50;;;;;9.45;96.31;99481.97;5056951;28;45542;-68
2021/12/25 02:31:28;;;;;;;;;27.00;25.25;;;;;9.45;95.95;99487.22;5058162;28;45317;-70
2021/12/25 02:33:53;;;;;;;;;34.25;28.00;;;;;9.36;96.42;99472.78;5057084;28;45423;-67
2021/12/25 02:36:19;;;;;;;;;33.25;30.00;;;;;9.35;96.22;99485.06;5057465;28;45341;-74
2021/12/25 02:38:45;;;;;;;;;37.00;29.00;;;;;9.33;96.52;99470.31;5038780;28;45423;-71
2021/12/25 02:41:11;;;;;;;;;27.00;22.25;;;;;9.35;96.64;99473.72;5057583;28;45320;-68
2021/12/25 02:43:37;;;;;;;;;26.75;26.75;;;;;9.42;97.09;99482.94;5058908;28;46105;-71
2021/12/25 02:46:04;;;;;;;;;27.75;26.75;;;;;9.44;97.11;99478.47;5064683;28;45303;-72
2021/12/25 02:48:31;;;;;;;;;32.50;29.00;;;;;9.49;96.69;99471.19;5057824;28;45419;-68
2021/12/25 02:50:57;;;;;;;;;29.75;27.00;;;;;9.54;97.03;99475.34;5059162;28;45521;-68
2021/12/25 02:53:23;;;;;;;;;31.00;27.25;;;;;9.57;96.75;99472.59;5056293;28;46435;-69
2021/12/25 02:55:49;;;;;;;;;31.25;27.75;;;;;9.62;96.60;99478.44;5056254;28;45305;-69
2021/12/25 02:58:19;;;;;;;;;22.25;18.50;;;;;9.64;96.63;99473.94;5040887;28;45474;-73
2021/12/25 03:00:49;;;;;;;;;31.50;29.00;;;;;9.68;96.34;99470.22;5057299;28;45425;-70
2021/12/25 03:03:14;;;;;;;;;33.00;30.00;;;;;9.73;96.17;99473.44;5056346;28;45908;-70
2021/12/25 03:05:40;;;;;;;;;25.75;23.75;;;;;9.78;96.23;99471.41;5056044;28;45328;-69
2021/12/25 03:08:10;;;;;;;;;31.75;27.50;;;;;9.83;96.19;99476.41;5056349;28;45236;-70
2021/12/25 03:10:37;;;;;;;;;34.75;29.25;;;;;9.85;96.07;99468.44;5056433;28;45351;-73
2021/12/25 03:15:46;;;;;;;;;30.75;27.50;;;;;9.90;95.64;99469.88;5055833;28;45307;-72
2021/12/25 03:18:17;;;;;;;;;31.25;25.75;;;;;9.96;95.38;99468.72;5056504;28;45308;-71
2021/12/25 03:20:46;;;;;;;;;29.75;26.50;;;;;9.98;95.57;99469.47;5056637;28;45364;-71
2021/12/25 03:23:13;;;;;;;;;34.75;28.00;;;;;10.03;95.22;99474.44;5057842;28;46166;-71
2021/12/25 03:25:40;;;;;;;;;25.75;25.50;;;;;10.02;94.96;99468.38;5057894;28;45227;-71
2021/12/25 03:28:06;;;;;;;;;30.00;26.75;;;;;10.05;95.02;99472.59;5056717;28;45344;-69
2021/12/25 03:30:36;;;;;;;;;26.25;22.50;;;;;10.07;94.64;99471.56;5057771;28;45327;-71
2021/12/25 03:33:02;;;;;;;;;23.25;21.00;;;;;10.04;94.98;99468.25;5057276;28;46198;-72
2021/12/25 03:35:27;;;;;;;;;22.75;18.00;;;;;10.09;94.76;99468.88;5057840;28;45354;-69
2021/12/25 03:37:53;;;;;;;;;21.50;19.00;;;;;10.09;94.30;99472.34;5056001;28;45465;-70
2021/12/25 03:40:18;;;;;;;;;20.50;18.25;;;;;10.11;94.24;99474.03;5056192;28;45330;-66
2021/12/25 03:42:43;;;;;;;;;20.75;20.50;;;;;10.11;94.54;99476.66;5055889;28;46670;-69
2021/12/25 03:45:09;;;;;;;;;19.25;18.00;;;;;10.08;94.07;99473.28;5055658;28;45425;-68
2021/12/25 03:47:37;;;;;;;;;22.75;19.75;;;;;10.13;94.08;99485.31;5055984;28;45348;-72
2021/12/25 03:58:34;;;;;;;;;21.00;18.25;;;;;10.15;94.16;99486.94;5055006;28;45466;-69
2021/12/25 04:01:12;;;;;;;;;24.00;22.00;;;;;10.16;94.02;99485.13;5058238;28;45554;-71
2021/12/25 04:03:48;;;;;;;;;22.75;18.75;;;;;10.19;94.27;99484.97;5060881;28;45584;-68
2021/12/25 04:06:13;;;;;;;;;26.75;20.25;;;;;10.20;94.06;99489.28;5069192;28;45410;-70
2021/12/25 04:08:44;;;;;;;;;22.50;19.00;;;;;10.19;94.21;99487.59;5060971;28;45591;-70
2021/12/25 04:11:25;;;;;;;;;23.00;21.00;;;;;10.23;93.77;99487.34;5056310;28;45525;-69
2021/12/25 04:13:51;;;;;;;;;25.00;19.75;;;;;10.25;93.71;99487.25;5055451;28;46248;-70
2021/12/25 04:16:16;;;;;;;;;19.25;17.00;;;;;10.28;94.22;99494.13;5056849;28;45311;-74
2021/12/25 04:18:42;;;;;;;;;22.00;19.75;;;;;10.30;94.31;99497.50;5057711;28;45273;-71
2021/12/25 04:21:07;;;;;;;;;26.75;24.25;;;;;10.32;94.25;99491.22;5040385;28;45253;-73
2021/12/25 04:23:36;;;;;;;;;21.00;18.50;;;;;10.29;93.73;99486.13;5056267;28;46770;-72
2021/12/25 04:26:02;;;;;;;;;20.75;18.25;;;;;10.37;93.71;99488.34;5058623;28;45411;-72
2021/12/25 05:04:00;;;;;;;;;23.75;22.25;;;;;10.33;93.66;99486.81;5058323;28;45271;-70
2021/12/25 05:06:26;;;;;;;;;22.00;20.25;;;;;10.32;93.67;99485.13;5058977;28;47065;-72
2021/12/25 05:08:52;;;;;;;;;26.25;22.00;;;;;10.33;93.66;99490.28;5062124;28;45357;-71
2021/12/25 05:11:17;;;;;;;;;1.50;0.00;;;;;10.31;93.77;99496.56;5058432;28;45201;-65
2021/12/25 05:13:45;;;;;;;;;16.25;15.50;;;;;10.32;93.89;99498.28;5039833;28;45372;-66
2021/12/25 05:16:11;;;;;;;;;25.75;19.75;;;;;10.31;93.82;99492.16;5057685;28;46424;-67
2021/12/25 05:18:36;;;;;;;;;23.75;20.00;;;;;10.32;94.15;99491.22;5057817;28;45323;-69
2021/12/25 05:21:02;;;;;;;;;21.50;19.00;;;;;10.29;94.28;99488.75;5058224;28;45324;-71
2021/12/25 05:23:28;;;;;;;;;22.50;19.50;;;;;10.32;93.98;99496.47;5059167;28;45626;-70
2021/12/25 05:25:53;;;;;;;;;25.00;22.75;;;;;10.31;94.24;99493.94;5058615;28;45995;-69
2021/12/25 05:28:25;;;;;;;;;21.50;19.25;;;;;10.29;94.17;99491.38;5059991;28;45370;-69
2021/12/25 05:30:51;;;;;;;;;23.25;19.00;;;;;10.31;94.41;99494.78;5058262;28;45402;-71
2021/12/25 05:33:16;;;;;;;;;27.00;22.75;;;;;10.32;94.24;99501.72;5057905;28;45523;-71
2021/12/25 05:35:42;;;;;;;;;23.00;19.25;;;;;10.28;94.89;99496.75;5057282;28;45388;-69
2021/12/25 05:38:13;;;;;;;;;25.00;23.00;;;;;10.32;94.85;99495.66;5057468;28;45419;-68
2021/12/25 05:40:39;;;;;;;;;24.50;20.00;;;;;10.32;94.63;99496.47;5057694;28;45482;-68
2021/12/25 05:43:04;;;;;;;;;19.00;18.75;;;;;10.30;94.55;99500.13;5057561;28;45505;-70
2021/12/25 05:45:30;;;;;;;;;21.50;21.00;;;;;10.32;94.93;99506.16;5038930;28;45512;-65
2021/12/25 05:47:55;;;;;;;;;28.50;21.50;;;;;10.35;95.00;99500.72;5058074;28;45460;-66
2021/12/25 05:50:20;;;;;;;;;22.00;19.50;;;;;10.37;94.50;99506.75;5058487;28;45402;-70
2021/12/25 05:52:46;;;;;;;;;22.25;19.75;;;;;10.31;94.15;99494.78;5061972;28;45567;-70
2021/12/25 05:55:11;;;;;;;;;23.50;21.00;;;;;10.32;94.84;99499.09;5062123;28;46273;-69
2021/12/25 05:57:37;;;;;;;;;23.75;23.25;;;;;10.36;94.47;99498.00;5060405;28;45465;-71
2021/12/25 06:00:05;;;;;;;;;23.25;22.50;;;;;10.37;94.59;99498.84;5057972;28;45416;-70
2021/12/25 06:02:30;;;;;;;;;27.75;24.00;;;;;10.38;94.39;99509.28;5057644;28;45410;-69
2021/12/25 06:04:55;;;;;;;;;27.25;24.00;;;;;10.37;94.37;99507.56;5056817;28;46296;-69
2021/12/25 06:07:21;;;;;;;;;27.75;22.75;;;;;10.37;94.69;99494.44;5057422;28;45390;-72
2021/12/25 06:09:46;;;;;;;;;26.75;22.75;;;;;10.40;94.53;99503.09;5057310;28;45217;-70
2021/12/25 06:12:14;;;;;;;;;26.75;22.50;;;;;10.43;94.51;99510.81;5055721;28;45324;-72
2021/12/25 06:14:39;;;;;;;;;27.75;24.75;;;;;10.45;94.32;99501.06;5056652;28;47367;-71
2021/12/25 06:17:05;;;;;;;;;31.00;25.00;;;;;10.46;94.52;99502.75;5056969;28;45524;-71
2021/12/25 06:19:30;;;;;;;;;29.00;23.50;;;;;10.49;94.75;99503.44;5057160;28;45289;-72
2021/12/25 06:21:55;;;;;;;;;32.25;26.00;;;;;10.50;94.28;99505.13;5057337;28;45328;-69
2021/12/25 06:24:22;;;;;;;;;28.75;27.00;;;;;10.51;94.48;99511.22;5057444;28;45460;-73
2021/12/25 06:26:47;;;;;;;;;28.25;24.75;;;;;10.49;94.83;99499.94;5059545;28;45386;-72
2021/12/25 06:29:19;;;;;;;;;23.00;18.50;;;;;10.57;94.77;99504.78;5064702;28;45387;-71
2021/12/25 06:31:44;;;;;;;;;27.00;24.00;;;;;10.58;94.08;99515.19;5068515;28;45364;-71
2021/12/25 06:34:10;;;;;;;;;25.50;23.25;;;;;10.59;94.50;99516.91;5056944;28;46126;-70
2021/12/25 06:36:35;;;;;;;;;27.75;23.75;;;;;10.60;93.97;99517.75;5056555;28;45426;-72
2021/12/25 06:39:02;;;;;;;;;28.75;23.75;;;;;10.61;94.46;99522.94;5057898;28;45434;-72
2021/12/25 06:41:28;;;;;;;;;37.00;28.25;;;;;10.65;93.38;99523.59;5057487;28;45522;-70
2021/12/25 06:43:54;;;;;;;;;32.50;27.75;;;;;10.63;94.21;99522.84;5038170;28;46394;-72
2021/12/25 06:46:19;;;;;;;;;32.25;28.00;;;;;10.64;93.80;99521.91;5056153;28;45383;-66
2021/12/25 06:48:44;;;;;;;;;25.00;24.75;;;;;10.62;93.82;99518.50;5055979;28;45454;-70
2021/12/25 06:51:10;;;;;;;;;34.75;27.00;;;;;10.63;93.91;99525.47;5056976;28;45230;-68
2021/12/25 06:53:36;;;;;;;;;29.50;24.00;;;;;10.62;93.62;99527.28;5056382;28;45441;-66
2021/12/25 06:56:02;;;;;;;;;27.75;26.50;;;;;10.62;94.14;99527.28;5056361;28;45247;-69
2021/12/25 06:58:28;;;;;;;;;32.75;27.00;;;;;10.62;93.78;99529.91;5056223;28;45266;-69
2021/12/25 07:00:53;;;;;;;;;25.25;24.25;;;;;10.60;94.11;99526.50;5056774;28;45564;-71
2021/12/25 07:03:18;;;;;;;;;28.75;25.25;;;;;10.56;94.43;99521.50;5038146;28;48330;-73
2021/12/25 07:05:44;;;;;;;;;30.00;29.00;;;;;10.56;94.64;99524.97;5057162;28;45392;-69
2021/12/25 07:08:09;;;;;;;;;35.75;27.25;;;;;10.56;97.09;99524.97;5057280;28;45336;-71
2021/12/25 07:10:35;;;;;;;;;26.50;23.75;;;;;10.53;97.16;99525.13;5058615;28;45296;-71
2021/12/25 07:13:00;;;;;;;;;27.00;23.25;;;;;10.30;97.69;99493.09;5057834;28;46204;-70
2021/12/25 07:15:26;;;;;;;;;31.25;28.25;;;;;10.46;97.97;99523.78;5058210;28;45323;-72
2021/12/25 07:17:51;;;;;;;;;34.25;24.00;;;;;10.47;98.38;99530.75;5057449;28;45340;-71
2021/12/25 07:20:16;;;;;;;;;27.50;25.75;;;;;10.46;97.15;99526.41;5058228;28;45478;-73
2021/12/25 07:22:42;;;;;;;;;30.00;28.75;;;;;10.40;96.87;99522.38;5058865;28;47368;-69
2021/12/25 07:25:08;;;;;;;;;34.00;28.75;;;;;10.34;96.22;99520.91;5057289;28;45406;-67
2021/12/25 07:27:34;;;;;;;;;29.00;28.75;;;;;10.35;97.17;99527.00;5056413;28;45288;-68
2021/12/25 07:30:02;;;;;;;;;31.50;28.00;;;;;10.40;97.32;99532.88;5056430;28;45402;-70
2021/12/25 07:32:27;;;;;;;;;32.00;28.75;;;;;10.41;97.17;99525.84;5056142;28;45276;-71
2021/12/25 07:34:53;;;;;;;;;38.75;30.00;;;;;10.40;97.01;99530.25;5055627;28;45443;-71
2021/12/25 07:37:18;;;;;;;;;34.00;29.00;;;;;10.41;97.67;99528.47;5055815;28;45323;-69
2021/12/25 07:39:44;;;;;;;;;32.50;29.25;;;;;10.40;96.83;99527.63;5054539;28;45407;-71
2021/12/25 07:42:11;;;;;;;;;33.75;26.75;;;;;10.39;96.65;99525.91;5055941;28;45266;-66
2021/12/25 07:44:37;;;;;;;;;38.50;30.25;;;;;10.41;96.59;99533.72;5055933;28;45434;-71
2021/12/25 07:47:08;;;;;;;;;34.00;30.00;;;;;10.38;96.87;99529.47;5065165;28;45388;-70
2021/12/25 07:49:35;;;;;;;;;35.75;32.00;;;;;10.41;96.65;99531.09;5058163;28;45483;-68
2021/12/25 07:52:01;;;;;;;;;32.75;29.25;;;;;10.43;96.93;99529.22;5057637;28;45626;-67
2021/12/25 07:54:26;;;;;;;;;33.75;28.25;;;;;10.44;96.64;99529.16;5057352;28;45433;-73
2021/12/25 07:56:52;;;;;;;;;29.75;28.00;;;;;10.47;96.53;99534.25;5055795;28;45383;-67
2021/12/25 07:59:17;;;;;;;;;30.75;29.75;;;;;10.47;96.12;99536.88;5058339;28;45599;-71
2021/12/25 08:01:43;;;;;;;;;35.00;29.25;;;;;10.45;95.89;99533.47;5059151;28;45986;-71
2021/12/25 08:04:09;;;;;;;;;31.00;28.25;;;;;10.46;96.22;99529.03;5040736;28;45257;-69
2021/12/25 08:06:35;;;;;;;;;31.75;27.75;;;;;10.48;96.38;99541.19;5059679;28;45280;-72
2021/12/25 08:09:04;;;;;;;;;35.00;29.75;;;;;10.48;95.86;99541.19;5060262;28;45504;-66
2021/12/25 08:11:30;;;;;;;;;34.50;27.00;;;;;10.49;95.30;99540.25;5062505;28;46165;-72
2021/12/25 08:13:56;;;;;;;;;30.75;27.50;;;;;10.50;95.47;99541.09;5059376;28;45309;-69
2021/12/25 08:16:22;;;;;;;;;34.50;30.50;;;;;10.52;95.59;99540.06;5058869;28;45426;-73
2021/12/25 08:18:47;;;;;;;;;33.50;29.75;;;;;10.54;95.56;99553.13;5057637;28;45593;-71
2021/12/25 08:21:13;;;;;;;;;36.00;29.50;;;;;10.53;95.57;99548.81;5058814;28;45392;-69
2021/12/25 08:23:39;;;;;;;;;30.25;29.00;;;;;10.54;95.47;99547.03;5058579;28;45296;-71
2021/12/25 08:26:06;;;;;;;;;32.50;28.50;;;;;10.55;95.54;99546.09;5059273;28;45306;-69
2021/12/25 08:28:31;;;;;;;;;34.75;27.50;;;;;10.58;95.19;99546.75;5059698;28;45393;-66
2021/12/25 08:30:57;;;;;;;;;32.00;27.00;;;;;10.57;95.64;99542.44;5059213;28;45359;-72
2021/12/25 08:33:23;;;;;;;;;30.75;25.75;;;;;10.61;95.84;99540.50;5059096;28;45188;-71
2021/12/25 08:35:48;;;;;;;;;32.75;27.75;;;;;10.65;95.27;99549.91;5059256;28;45481;-68
2021/12/25 08:38:14;;;;;;;;;28.75;28.00;;;;;10.63;95.58;99546.50;5058798;28;45443;-70
2021/12/25 08:40:41;;;;;;;;;31.00;28.50;;;;;10.66;94.95;99541.06;5058215;28;46157;-72
2021/12/25 08:43:06;;;;;;;;;29.00;26.50;;;;;10.67;94.85;99540.13;5057342;28;45427;-72
2021/12/25 08:48:19;;;;;;;;;29.00;26.50;;;;;10.72;94.02;99553.88;5061836;28;45166;-72
2021/12/25 08:50:51;;;;;;;;;36.25;29.75;;;;;10.73;94.23;99560.81;5065721;28;45295;-71
2021/12/25 08:53:18;;;;;;;;;29.75;27.00;;;;;10.72;94.10;99553.03;5064526;28;45398;-71
2021/12/25 08:55:45;;;;;;;;;31.25;29.75;;;;;10.74;93.93;99559.06;5059757;28;45304;-71
2021/12/25 08:58:10;;;;;;;;;30.75;27.50;;;;;10.75;93.90;99560.75;5059964;28;45248;-71
2021/12/25 09:00:36;;;;;;;;;35.00;27.50;;;;;10.73;94.23;99557.38;5059342;28;45470;-70
2021/12/25 09:03:02;;;;;;;;;35.25;30.25;;;;;10.75;93.52;99561.59;5060614;28;45304;-68
2021/12/25 09:05:27;;;;;;;;;36.00;30.25;;;;;10.75;93.68;99566.00;5061789;28;45277;-67
2021/12/25 09:07:52;;;;;;;;;28.75;27.75;;;;;10.74;93.79;99556.44;5059433;28;45276;-67
2021/12/25 09:10:18;;;;;;;;;28.25;23.75;;;;;10.74;93.64;99557.25;5057984;28;46086;-68
2021/12/25 09:12:45;;;;;;;;;22.00;22.00;;;;;10.75;93.40;99566.00;5060192;28;45526;-66
2021/12/25 09:15:11;;;;;;;;;27.75;27.50;;;;;10.76;92.58;99567.72;5059228;28;45340;-73
2021/12/25 09:17:37;;;;;;;;;26.50;25.00;;;;;10.75;93.21;99561.59;5058698;28;45426;-67
2021/12/25 09:20:05;;;;;;;;;33.50;29.50;;;;;10.77;92.61;99561.50;5058852;28;45430;-70
2021/12/25 09:22:31;;;;;;;;;25.00;23.75;;;;;10.78;92.93;99571.09;5058729;28;45406;-71
2021/12/25 09:24:56;;;;;;;;;28.50;23.25;;;;;10.79;92.37;99572.78;5058001;28;45612;-67
2021/12/25 09:27:21;;;;;;;;;23.75;19.75;;;;;10.73;92.18;99568.72;5057938;28;45255;-70
2021/12/25 09:29:48;;;;;;;;;20.50;19.00;;;;;10.79;92.17;99578.06;5057513;28;46188;-68
2021/12/25 09:32:13;;;;;;;;;20.75;17.25;;;;;10.77;91.91;99572.03;5057657;28;45892;-70
2021/12/25 09:34:39;;;;;;;;;28.00;21.00;;;;;10.77;92.23;99574.66;5057582;28;45324;-66
2021/12/25 09:37:04;;;;;;;;;26.25;24.75;;;;;10.79;91.83;99578.06;5057935;28;45323;-68
2021/12/25 09:39:29;;;;;;;;;26.00;21.50;;;;;10.81;91.67;99571.75;5057310;28;46464;-65
2021/12/25 09:41:55;;;;;;;;;26.00;21.25;;;;;10.86;91.88;99568.00;5057864;28;45304;-73
2021/12/25 09:44:20;;;;;;;;;22.75;21.00;;;;;10.89;91.59;99586.25;5060490;28;45247;-71
2021/12/25 09:46:45;;;;;;;;;21.75;16.75;;;;;10.90;91.45;99582.69;5048415;28;45441;-69
2021/12/25 09:49:11;;;;;;;;;27.75;23.50;;;;;10.91;91.55;99582.59;5058553;28;45858;-74
2021/12/25 09:51:37;;;;;;;;;28.00;23.00;;;;;10.92;91.31;99589.56;5058062;28;45324;-73
2021/12/25 09:54:15;;;;;;;;;25.25;22.00;;;;;10.95;91.29;99585.91;5058146;28;45358;-70
2021/12/25 09:56:43;;;;;;;;;25.00;20.00;;;;;10.93;91.27;99586.00;5057341;28;45496;-73
2021/12/25 09:59:10;;;;;;;;;23.50;21.25;;;;;10.93;90.61;99588.63;5038840;28;46202;-71
2021/12/25 10:01:43;;;;;;;;;28.25;21.50;;;;;10.96;91.07;99591.09;5055749;28;46327;-70
2021/12/25 10:04:28;;;;;;;;;24.25;24.00;;;;;11.01;91.24;99588.16;5057189;28;45461;-72
2021/12/25 10:06:54;;;;;;;;;24.50;22.25;;;;;11.09;90.81;99587.72;5058715;28;45521;-70
2021/12/25 10:09:24;;;;;;;;;26.25;24.50;;;;;11.18;90.66;99595.09;5057607;28;45292;-70
2021/12/25 10:12:11;;;;;;;;;26.00;22.75;;;;;11.25;90.17;99591.16;5057068;28;45430;-71
2021/12/25 10:14:39;;;;;;;;;32.50;26.75;;;;;11.31;89.66;99589.97;5056858;28;45325;-70
2021/12/25 10:17:23;;;;;;;;;28.25;21.00;;;;;11.37;89.93;99588.72;5057521;28;45628;-72
2021/12/25 10:20:12;;;;;;;;;26.75;23.00;;;;;11.43;89.37;99585.75;5056934;28;45441;-68
2021/12/25 10:22:56;;;;;;;;;26.75;23.50;;;;;11.50;89.08;99578.34;5055579;28;45407;-70
2021/12/25 10:25:23;;;;;;;;;20.75;18.00;;;;;11.58;88.77;99569.94;5056938;28;45406;-70
2021/12/25 10:27:52;;;;;;;;;24.25;20.75;;;;;11.65;88.51;99568.63;5057622;28;45426;-73
2021/12/25 10:30:18;;;;;;;;;21.50;19.00;;;;;11.72;87.87;99569.13;5058430;28;46207;-72
2021/12/25 10:32:44;;;;;;;;;19.75;18.25;;;;;11.81;87.67;99561.50;5039647;28;45360;-71
2021/12/25 10:35:18;;;;;;;;;24.00;21.75;;;;;11.94;87.67;99566.03;5056852;28;45460;-72
2021/12/25 10:37:46;;;;;;;;;21.00;18.00;;;;;11.98;86.14;99560.44;5057505;28;45362;-72
2021/12/25 10:40:17;;;;;;;;;18.25;16.75;;;;;12.03;86.34;99562.84;5059292;28;45357;-74
2021/12/25 10:42:45;;;;;;;;;25.75;21.75;;;;;12.08;86.16;99562.53;5061768;28;45307;-72
2021/12/25 10:45:13;;;;;;;;;25.00;20.00;;;;;12.12;85.92;99567.53;5056700;28;45323;-71
2021/12/25 10:47:39;;;;;;;;;20.25;19.50;;;;;12.15;85.87;99570.91;5056840;28;45289;-70
2021/12/25 10:50:17;;;;;;;;;20.00;16.00;;;;;12.19;85.95;99556.59;5056512;28;46196;-76
2021/12/25 10:52:46;;;;;;;;;20.25;17.25;;;;;12.20;85.23;99567.06;5056974;28;45353;-70
2021/12/25 10:55:26;;;;;;;;;22.25;18.50;;;;;12.20;84.99;99560.94;5056339;28;45334;-72
2021/12/25 10:57:54;;;;;;;;;25.25;19.75;;;;;12.18;85.49;99557.53;5056507;28;45391;-73
2021/12/25 11:00:20;;;;;;;;;19.00;15.50;;;;;12.17;84.02;99550.56;5056420;28;45384;-69
2021/12/25 11:02:47;;;;;;;;;16.75;15.25;;;;;11.94;84.84;99522.06;5055794;28;45268;-71
2021/12/25 11:05:29;;;;;;;;;17.00;13.75;;;;;12.09;84.98;99546.63;5056159;28;45299;-69
2021/12/25 11:08:07;;;;;;;;;19.25;17.50;;;;;12.08;84.59;99537.03;5056232;28;45409;-69
2021/12/25 11:10:46;;;;;;;;;11.00;11.00;;;;;12.10;84.52;99539.56;5056477;28;45388;-69
2021/12/25 11:13:34;;;;;;;;;19.75;16.50;;;;;12.11;84.54;99531.56;5057221;28;45353;-68
2021/12/25 11:16:15;;;;;;;;;15.50;15.50;;;;;12.15;84.64;99537.47;5039464;28;45286;-71
2021/12/25 11:19:09;;;;;;;;;16.50;14.75;;;;;12.16;84.71;99527.78;5056230;28;45525;-72
2021/12/25 11:21:43;;;;;;;;;21.00;19.75;;;;;12.17;84.70;99532.13;5057739;28;45295;-70
2021/12/25 11:24:35;;;;;;;;;20.00;18.25;;;;;12.17;84.93;99530.31;5058429;28;45221;-72
2021/12/25 11:27:04;;;;;;;;;16.50;16.50;;;;;12.17;84.62;99529.47;5059633;28;45335;-70
2021/12/25 11:29:31;;;;;;;;;19.00;16.50;;;;;12.15;84.38;99528.75;5058238;28;45220;-72
2021/12/25 11:31:59;;;;;;;;;17.00;13.25;;;;;12.12;84.41;99528.00;5055677;28;45337;-70
2021/12/25 11:34:26;;;;;;;;;21.50;19.75;;;;;12.13;84.74;99524.41;5056054;28;45404;-73
2021/12/25 11:36:54;;;;;;;;;21.50;19.50;;;;;12.17;84.76;99524.22;5056055;28;45314;-72
2021/12/25 11:39:22;;;;;;;;;16.75;15.25;;;;;12.17;84.62;99519.78;5055890;28;45466;-73
2021/12/25 11:41:49;;;;;;;;;18.75;17.25;;;;;12.16;84.23;99511.97;5056527;28;45393;-70
2021/12/25 11:44:40;;;;;;;;;18.25;17.00;;;;;12.17;84.76;99514.50;5056624;28;45484;-71
2021/12/25 11:47:27;;;;;;;;;24.50;21.25;;;;;12.25;85.19;99517.53;5055944;28;45301;-72
2021/12/25 11:49:55;;;;;;;;;20.25;19.00;;;;;12.39;84.63;99519.25;5056295;28;45253;-70
2021/12/25 11:52:25;;;;;;;;;20.50;16.00;;;;;12.50;84.35;99515.06;5057362;28;47242;-70
2021/12/25 11:57:59;;;;;;;;;27.25;22.50;;;;;12.69;84.88;99510.25;5055924;28;45408;-73
2021/12/25 12:00:42;;;;;;;;;21.75;21.25;;;;;12.79;84.50;99509.69;5056180;28;45482;-72
2021/12/25 12:03:08;;;;;;;;;30.75;26.00;;;;;12.81;84.44;99513.06;5056518;28;46094;-71
2021/12/25 12:05:36;;;;;;;;;23.50;20.50;;;;;12.83;84.37;99511.16;5055497;28;45335;-71
2021/12/25 12:08:10;;;;;;;;;36.75;31.25;;;;;12.80;84.11;99506.09;5056255;28;45317;-72
2021/12/25 12:10:45;;;;;;;;;23.00;21.25;;;;;12.82;83.85;99514.75;5055478;28;45411;-73
2021/12/25 12:13:28;;;;;;;;;30.50;26.75;;;;;12.87;84.34;99507.38;5055194;28;45570;-72
2021/12/25 12:16:03;;;;;;;;;30.75;27.75;;;;;12.93;84.28;99500.81;5055257;28;45542;-70
2021/12/25 12:18:38;;;;;;;;;27.50;22.50;;;;;13.00;83.41;99508.22;5055422;28;45387;-70
2021/12/25 12:21:15;;;;;;;;;31.00;23.50;;;;;13.05;83.08;99501.78;5055441;28;45566;-73
2021/12/25 12:24:11;;;;;;;;;25.25;22.50;;;;;13.01;82.55;99503.78;5055537;28;46150;-69
2021/12/25 12:26:47;;;;;;;;;20.75;19.25;;;;;12.97;82.50;99510.22;5056100;28;45486;-72
2021/12/25 12:29:15;;;;;;;;;25.50;24.50;;;;;12.95;82.75;99505.06;5055378;28;45415;-70
2021/12/25 12:31:47;;;;;;;;;26.00;20.75;;;;;12.93;82.10;99508.72;5021253;28;45544;-70
2021/12/25 12:34:38;;;;;;;;;35.50;27.50;;;;;12.91;82.51;99506.22;5037008;28;46269;-73
2021/12/25 12:37:18;;;;;;;;;25.75;21.25;;;;;12.98;82.98;99501.34;5053884;28;46120;-71
2021/12/25 12:40:05;;;;;;;;;25.00;22.00;;;;;12.98;83.10;99499.56;5055160;28;45316;-69
2021/12/25 12:42:40;;;;;;;;;19.00;19.00;;;;;12.99;82.56;99498.63;5055341;28;45336;-73
2021/12/25 12:45:26;;;;;;;;;21.25;20.75;;;;;12.97;82.75;99495.25;5056444;28;46083;-72
2021/12/25 12:48:12;;;;;;;;;37.00;31.25;;;;;12.98;82.98;99494.28;5062762;28;45276;-72